sensor_id;sensor_type;location;lat;lon;timestamp;temperature;humidity
39401;DHT22;54391;50.000;7.360;2023-12-04T00:01:35;-3.60;18.90
39401;DHT22;54391;50.000;7.360;2023-12-04T00:04:02;-3.60;19.30
39401;DHT22;54391;50.000;7.360;2023-12-04T00:06:29;-3.60;18.90
39401;DHT22;54391;50.000;7.360;2023-12-04T00:08:58;-3.60;18.90
39401;DHT22;54391;50.000;7.360;2023-12-04T00:11:25;-3.60;18.80
39401;DHT22;54391;50.000;7.360;2023-12-04T00:13:52;-3.60;18.70
39401;DHT22;54391;50.000;7.360;2023-12-04T00:16:20;-3.60;18.80
39401;DHT22;54391;50.000;7.360;2023-12-04T00:18:47;-3.60;18.70
39401;DHT22;54391;50.000;7.360;2023-12-04T00:21:14;-3.60;18.20
39401;DHT22;54391;50.000;7.360;2023-12-04T00:23:41;-3.60;18.50
39401;DHT22;54391;50.000;7.360;2023-12-04T00:26:11;-3.80;17.90
39401;DHT22;54391;50.000;7.360;2023-12-04T00:28:38;-3.60;18.20
39401;DHT22;54391;50.000;7.360;2023-12-04T00:31:06;-3.80;22.50
39401;DHT22;54391;50.000;7.360;2023-12-04T00:33:33;-3.70;18.30
39401;DHT22;54391;50.000;7.360;2023-12-04T00:36:01;-3.60;18.40
39401;DHT22;54391;50.000;7.360;2023-12-04T00:38:28;-3.60;18.30
39401;DHT22;54391;50.000;7.360;2023-12-04T00:40:55;-3.60;18.20
39401;DHT22;54391;50.000;7.360;2023-12-04T00:43:24;-3.60;18.00
39401;DHT22;54391;50.000;7.360;2023-12-04T00:45:51;-3.60;17.70
39401;DHT22;54391;50.000;7.360;2023-12-04T00:48:18;-3.50;17.30
39401;DHT22;54391;50.000;7.360;2023-12-04T00:50:45;-3.50;17.20
39401;DHT22;54391;50.000;7.360;2023-12-04T00:53:13;-3.50;16.80
39401;DHT22;54391;50.000;7.360;2023-12-04T00:55:40;-3.50;16.80
39401;DHT22;54391;50.000;7.360;2023-12-04T00:58:07;-3.50;17.00
39401;DHT22;54391;50.000;7.360;2023-12-04T01:00:36;-3.50;16.90
39401;DHT22;54391;50.000;7.360;2023-12-04T01:03:03;-3.50;16.90
39401;DHT22;54391;50.000;7.360;2023-12-04T01:05:30;-3.50;17.90
39401;DHT22;54391;50.000;7.360;2023-12-04T01:07:57;-3.60;17.00
39401;DHT22;54391;50.000;7.360;2023-12-04T01:10:25;-3.60;17.10
39401;DHT22;54391;50.000;7.360;2023-12-04T01:12:52;-3.60;16.90
39401;DHT22;54391;50.000;7.360;2023-12-04T01:15:19;-3.60;16.70
39401;DHT22;54391;50.000;7.360;2023-12-04T01:17:48;-3.50;17.00
39401;DHT22;54391;50.000;7.360;2023-12-04T01:20:15;-3.50;17.00
39401;DHT22;54391;50.000;7.360;2023-12-04T01:22:42;-3.60;17.10
39401;DHT22;54391;50.000;7.360;2023-12-04T01:25:10;-3.60;17.20
39401;DHT22;54391;50.000;7.360;2023-12-04T01:27:37;-3.60;17.10
39401;DHT22;54391;50.000;7.360;2023-12-04T01:30:06;-3.60;16.90
39401;DHT22;54391;50.000;7.360;2023-12-04T01:32:34;-3.60;17.00
39401;DHT22;54391;50.000;7.360;2023-12-04T01:35:04;-3.60;17.30
39401;DHT22;54391;50.000;7.360;2023-12-04T01:37:32;-3.70;17.40
39401;DHT22;54391;50.000;7.360;2023-12-04T01:39:59;-3.70;17.90
39401;DHT22;54391;50.000;7.360;2023-12-04T01:42:27;-3.70;17.90
39401;DHT22;54391;50.000;7.360;2023-12-04T01:44:54;-3.70;17.90
39401;DHT22;54391;50.000;7.360;2023-12-04T01:47:21;-3.70;18.00
39401;DHT22;54391;50.000;7.360;2023-12-04T01:49:48;-3.60;17.90
39401;DHT22;54391;50.000;7.360;2023-12-04T01:52:17;-3.70;17.80
39401;DHT22;54391;50.000;7.360;2023-12-04T01:54:45;-3.60;17.70
39401;DHT22;54391;50.000;7.360;2023-12-04T01:57:12;-3.60;17.90
39401;DHT22;54391;50.000;7.360;2023-12-04T01:59:39;-3.60;17.90
39401;DHT22;54391;50.000;7.360;2023-12-04T02:02:07;-3.70;18.00
39401;DHT22;54391;50.000;7.360;2023-12-04T02:04:34;-3.70;18.00
39401;DHT22;54391;50.000;7.360;2023-12-04T02:07:02;-3.70;18.40
39401;DHT22;54391;50.000;7.360;2023-12-04T02:09:31;-3.70;18.40
39401;DHT22;54391;50.000;7.360;2023-12-04T02:11:59;-3.70;18.20
39401;DHT22;54391;50.000;7.360;2023-12-04T02:14:26;-3.70;18.20
39401;DHT22;54391;50.000;7.360;2023-12-04T02:16:55;-3.70;18.20
39401;DHT22;54391;50.000;7.360;2023-12-04T02:19:23;-3.60;18.10
39401;DHT22;54391;50.000;7.360;2023-12-04T02:21:51;-3.60;18.00
39401;DHT22;54391;50.000;7.360;2023-12-04T02:24:19;-3.60;18.00
39401;DHT22;54391;50.000;7.360;2023-12-04T02:26:53;-3.60;17.80
39401;DHT22;54391;50.000;7.360;2023-12-04T02:29:26;-3.60;17.70
39401;DHT22;54391;50.000;7.360;2023-12-04T02:31:57;-3.50;17.50
39401;DHT22;54391;50.000;7.360;2023-12-04T02:34:25;-3.50;17.20
39401;DHT22;54391;50.000;7.360;2023-12-04T02:36:52;-3.50;17.00
39401;DHT22;54391;50.000;7.360;2023-12-04T02:39:21;-3.50;17.40
39401;DHT22;54391;50.000;7.360;2023-12-04T02:41:49;-3.60;17.80
39401;DHT22;54391;50.000;7.360;2023-12-04T02:44:16;-3.60;18.10
39401;DHT22;54391;50.000;7.360;2023-12-04T02:46:43;-3.70;18.30
39401;DHT22;54391;50.000;7.360;2023-12-04T02:49:11;-3.70;18.40
39401;DHT22;54391;50.000;7.360;2023-12-04T02:51:40;-3.70;18.40
39401;DHT22;54391;50.000;7.360;2023-12-04T02:54:08;-3.70;18.70
39401;DHT22;54391;50.000;7.360;2023-12-04T02:56:36;-3.60;17.80
39401;DHT22;54391;50.000;7.360;2023-12-04T02:59:03;-3.50;17.40
39401;DHT22;54391;50.000;7.360;2023-12-04T03:01:31;-3.50;17.10
39401;DHT22;54391;50.000;7.360;2023-12-04T03:03:58;-3.50;16.70
39401;DHT22;54391;50.000;7.360;2023-12-04T03:06:25;-3.50;16.60
39401;DHT22;54391;50.000;7.360;2023-12-04T03:08:52;-3.40;16.40
39401;DHT22;54391;50.000;7.360;2023-12-04T03:11:19;-3.40;16.10
39401;DHT22;54391;50.000;7.360;2023-12-04T03:13:48;-3.40;16.30
39401;DHT22;54391;50.000;7.360;2023-12-04T03:16:16;-3.50;16.30
39401;DHT22;54391;50.000;7.360;2023-12-04T03:18:43;-3.50;16.10
39401;DHT22;54391;50.000;7.360;2023-12-04T03:21:10;-3.40;16.00
39401;DHT22;54391;50.000;7.360;2023-12-04T03:23:38;-3.50;16.30
39401;DHT22;54391;50.000;7.360;2023-12-04T03:26:05;-3.50;17.20
39401;DHT22;54391;50.000;7.360;2023-12-04T03:28:33;-3.50;16.90
39401;DHT22;54391;50.000;7.360;2023-12-04T03:31:01;-3.60;17.20
39401;DHT22;54391;50.000;7.360;2023-12-04T03:33:29;-3.70;17.80
39401;DHT22;54391;50.000;7.360;2023-12-04T03:35:56;-3.70;18.00
39401;DHT22;54391;50.000;7.360;2023-12-04T03:38:23;-3.60;18.00
39401;DHT22;54391;50.000;7.360;2023-12-04T03:40:50;-3.60;18.10
39401;DHT22;54391;50.000;7.360;2023-12-04T03:43:18;-3.60;17.70
39401;DHT22;54391;50.000;7.360;2023-12-04T03:45:45;-3.60;17.50
39401;DHT22;54391;50.000;7.360;2023-12-04T03:48:14;-3.50;17.20
39401;DHT22;54391;50.000;7.360;2023-12-04T03:50:41;-3.20;17.10
39401;DHT22;54391;50.000;7.360;2023-12-04T03:53:08;-3.50;17.00
39401;DHT22;54391;50.000;7.360;2023-12-04T03:55:35;-3.50;17.10
39401;DHT22;54391;50.000;7.360;2023-12-04T03:58:03;-3.50;17.00
39401;DHT22;54391;50.000;7.360;2023-12-04T04:00:30;-3.60;17.50
39401;DHT22;54391;50.000;7.360;2023-12-04T04:02:58;-3.60;17.60
39401;DHT22;54391;50.000;7.360;2023-12-04T04:05:26;-3.60;17.80
39401;DHT22;54391;50.000;7.360;2023-12-04T04:07:54;-3.70;18.70
39401;DHT22;54391;50.000;7.360;2023-12-04T04:10:21;-3.70;18.50
39401;DHT22;54391;50.000;7.360;2023-12-04T04:12:48;-3.80;18.80
39401;DHT22;54391;50.000;7.360;2023-12-04T04:15:16;-3.70;19.20
39401;DHT22;54391;50.000;7.360;2023-12-04T04:17:43;-3.80;19.50
39401;DHT22;54391;50.000;7.360;2023-12-04T04:20:10;-3.80;19.80
39401;DHT22;54391;50.000;7.360;2023-12-04T04:22:39;-3.80;19.60
39401;DHT22;54391;50.000;7.360;2023-12-04T04:25:07;-3.80;20.30
39401;DHT22;54391;50.000;7.360;2023-12-04T04:27:35;-3.80;20.60
39401;DHT22;54391;50.000;7.360;2023-12-04T04:30:03;-3.80;20.90
39401;DHT22;54391;50.000;7.360;2023-12-04T04:32:30;-3.90;21.20
39401;DHT22;54391;50.000;7.360;2023-12-04T04:34:58;-3.90;21.40
39401;DHT22;54391;50.000;7.360;2023-12-04T04:37:25;-3.90;21.80
39401;DHT22;54391;50.000;7.360;2023-12-04T04:39:53;-3.90;22.10
39401;DHT22;54391;50.000;7.360;2023-12-04T04:42:21;-3.90;22.20
39401;DHT22;54391;50.000;7.360;2023-12-04T04:44:49;-3.90;22.10
39401;DHT22;54391;50.000;7.360;2023-12-04T04:47:16;-3.90;22.10
39401;DHT22;54391;50.000;7.360;2023-12-04T04:49:43;-3.90;22.50
39401;DHT22;54391;50.000;7.360;2023-12-04T04:52:10;-3.90;22.70
39401;DHT22;54391;50.000;7.360;2023-12-04T04:54:37;-3.90;22.70
39401;DHT22;54391;50.000;7.360;2023-12-04T04:57:06;-3.90;22.80
39401;DHT22;54391;50.000;7.360;2023-12-04T04:59:34;-3.90;22.70
39401;DHT22;54391;50.000;7.360;2023-12-04T05:02:01;-3.90;22.50
39401;DHT22;54391;50.000;7.360;2023-12-04T05:04:28;-3.90;22.50
39401;DHT22;54391;50.000;7.360;2023-12-04T05:06:55;-3.90;22.60
39401;DHT22;54391;50.000;7.360;2023-12-04T05:09:23;-4.00;22.80
39401;DHT22;54391;50.000;7.360;2023-12-04T05:11:50;-3.20;22.90
39401;DHT22;54391;50.000;7.360;2023-12-04T05:14:18;-3.90;22.20
39401;DHT22;54391;50.000;7.360;2023-12-04T05:16:46;-3.90;21.90
39401;DHT22;54391;50.000;7.360;2023-12-04T05:19:13;-3.90;22.10
39401;DHT22;54391;50.000;7.360;2023-12-04T05:21:40;-3.90;22.10
39401;DHT22;54391;50.000;7.360;2023-12-04T05:24:07;-3.90;22.10
39401;DHT22;54391;50.000;7.360;2023-12-04T05:26:35;-4.00;22.30
39401;DHT22;54391;50.000;7.360;2023-12-04T05:29:02;-4.00;22.10
39401;DHT22;54391;50.000;7.360;2023-12-04T05:31:30;-4.00;21.40
39401;DHT22;54391;50.000;7.360;2023-12-04T05:33:57;-3.90;21.20
39401;DHT22;54391;50.000;7.360;2023-12-04T05:36:25;-3.90;21.00
39401;DHT22;54391;50.000;7.360;2023-12-04T05:38:52;-3.90;20.80
39401;DHT22;54391;50.000;7.360;2023-12-04T05:41:20;-3.90;20.80
39401;DHT22;54391;50.000;7.360;2023-12-04T05:43:48;-3.80;20.70
39401;DHT22;54391;50.000;7.360;2023-12-04T05:46:15;-3.80;20.70
39401;DHT22;54391;50.000;7.360;2023-12-04T05:48:44;-3.90;20.30
39401;DHT22;54391;50.000;7.360;2023-12-04T05:51:11;-4.10;26.00
39401;DHT22;54391;50.000;7.360;2023-12-04T05:53:38;-3.80;20.20
39401;DHT22;54391;50.000;7.360;2023-12-04T05:56:07;-3.80;20.20
39401;DHT22;54391;50.000;7.360;2023-12-04T05:58:34;-3.80;20.00
39401;DHT22;54391;50.000;7.360;2023-12-04T06:01:02;-3.80;20.00
39401;DHT22;54391;50.000;7.360;2023-12-04T06:03:29;-3.60;19.40
39401;DHT22;54391;50.000;7.360;2023-12-04T06:06:00;-3.60;18.60
39401;DHT22;54391;50.000;7.360;2023-12-04T06:08:27;-3.70;18.40
39401;DHT22;54391;50.000;7.360;2023-12-04T06:10:54;-3.80;18.60
39401;DHT22;54391;50.000;7.360;2023-12-04T06:13:22;-3.70;18.60
39401;DHT22;54391;50.000;7.360;2023-12-04T06:15:49;-3.70;17.80
39401;DHT22;54391;50.000;7.360;2023-12-04T06:18:16;-3.60;17.00
39401;DHT22;54391;50.000;7.360;2023-12-04T06:20:43;-3.60;16.50
39401;DHT22;54391;50.000;7.360;2023-12-04T06:23:12;-3.60;16.10
39401;DHT22;54391;50.000;7.360;2023-12-04T06:25:41;-3.50;15.80
39401;DHT22;54391;50.000;7.360;2023-12-04T06:28:09;-3.60;15.40
39401;DHT22;54391;50.000;7.360;2023-12-04T06:30:37;-3.60;15.00
39401;DHT22;54391;50.000;7.360;2023-12-04T06:33:05;-3.50;14.00
39401;DHT22;54391;50.000;7.360;2023-12-04T06:35:32;-3.50;14.50
39401;DHT22;54391;50.000;7.360;2023-12-04T06:38:05;-2.80;14.20
39401;DHT22;54391;50.000;7.360;2023-12-04T06:40:35;-3.50;13.90
39401;DHT22;54391;50.000;7.360;2023-12-04T06:43:03;-3.50;14.10
39401;DHT22;54391;50.000;7.360;2023-12-04T06:45:31;-3.50;14.10
39401;DHT22;54391;50.000;7.360;2023-12-04T06:47:59;-3.50;14.40
39401;DHT22;54391;50.000;7.360;2023-12-04T06:50:27;-3.60;14.60
39401;DHT22;54391;50.000;7.360;2023-12-04T06:52:54;-3.60;14.90
39401;DHT22;54391;50.000;7.360;2023-12-04T06:55:21;-3.60;15.20
39401;DHT22;54391;50.000;7.360;2023-12-04T06:57:50;-3.60;15.50
39401;DHT22;54391;50.000;7.360;2023-12-04T07:00:18;-3.60;15.50
39401;DHT22;54391;50.000;7.360;2023-12-04T07:02:45;-3.40;14.80
39401;DHT22;54391;50.000;7.360;2023-12-04T07:05:12;-3.40;13.90
39401;DHT22;54391;50.000;7.360;2023-12-04T07:07:40;-3.40;13.00
39401;DHT22;54391;50.000;7.360;2023-12-04T07:10:08;-3.40;12.30
39401;DHT22;54391;50.000;7.360;2023-12-04T07:12:35;-3.20;11.70
39401;DHT22;54391;50.000;7.360;2023-12-04T07:15:05;-3.20;11.80
39401;DHT22;54391;50.000;7.360;2023-12-04T07:17:32;-3.10;12.10
39401;DHT22;54391;50.000;7.360;2023-12-04T07:19:59;-3.00;11.20
39401;DHT22;54391;50.000;7.360;2023-12-04T07:22:26;-2.90;11.30
39401;DHT22;54391;50.000;7.360;2023-12-04T07:24:54;-2.90;11.30
39401;DHT22;54391;50.000;7.360;2023-12-04T07:27:21;-3.00;11.50
39401;DHT22;54391;50.000;7.360;2023-12-04T07:29:48;-3.10;12.10
39401;DHT22;54391;50.000;7.360;2023-12-04T07:32:17;-3.20;12.30
39401;DHT22;54391;50.000;7.360;2023-12-04T07:34:44;-3.30;13.70
39401;DHT22;54391;50.000;7.360;2023-12-04T07:37:11;-3.40;14.30
39401;DHT22;54391;50.000;7.360;2023-12-04T07:39:39;-3.50;15.50
39401;DHT22;54391;50.000;7.360;2023-12-04T07:42:06;-3.60;16.30
39401;DHT22;54391;50.000;7.360;2023-12-04T07:44:33;-3.60;16.40
39401;DHT22;54391;50.000;7.360;2023-12-04T07:47:00;-3.70;15.90
39401;DHT22;54391;50.000;7.360;2023-12-04T07:49:29;-3.70;16.20
39401;DHT22;54391;50.000;7.360;2023-12-04T07:51:56;-3.70;16.20
39401;DHT22;54391;50.000;7.360;2023-12-04T07:54:23;-3.80;16.50
39401;DHT22;54391;50.000;7.360;2023-12-04T07:56:52;-3.80;17.10
39401;DHT22;54391;50.000;7.360;2023-12-04T07:59:20;-3.80;17.40
39401;DHT22;54391;50.000;7.360;2023-12-04T08:01:47;-3.80;17.30
39401;DHT22;54391;50.000;7.360;2023-12-04T08:04:14;-3.70;17.50
39401;DHT22;54391;50.000;7.360;2023-12-04T08:06:43;-3.70;17.00
39401;DHT22;54391;50.000;7.360;2023-12-04T08:09:10;-3.70;17.20
39401;DHT22;54391;50.000;7.360;2023-12-04T08:11:38;-3.80;16.90
39401;DHT22;54391;50.000;7.360;2023-12-04T08:14:06;-3.80;17.70
39401;DHT22;54391;50.000;7.360;2023-12-04T08:16:33;-3.80;17.60
39401;DHT22;54391;50.000;7.360;2023-12-04T08:19:01;-3.80;17.40
39401;DHT22;54391;50.000;7.360;2023-12-04T08:21:28;-3.80;17.10
39401;DHT22;54391;50.000;7.360;2023-12-04T08:23:56;-3.80;17.60
39401;DHT22;54391;50.000;7.360;2023-12-04T08:26:24;-3.80;17.30
39401;DHT22;54391;50.000;7.360;2023-12-04T08:28:52;-3.80;18.20
39401;DHT22;54391;50.000;7.360;2023-12-04T08:31:19;-3.90;18.40
39401;DHT22;54391;50.000;7.360;2023-12-04T08:33:46;-3.80;18.30
39401;DHT22;54391;50.000;7.360;2023-12-04T08:36:14;-3.90;18.50
39401;DHT22;54391;50.000;7.360;2023-12-04T08:38:41;-3.80;18.60
39401;DHT22;54391;50.000;7.360;2023-12-04T08:41:09;-3.80;23.00
39401;DHT22;54391;50.000;7.360;2023-12-04T08:43:37;-3.80;17.90
39401;DHT22;54391;50.000;7.360;2023-12-04T08:46:04;-3.70;18.60
39401;DHT22;54391;50.000;7.360;2023-12-04T08:48:33;-3.70;18.00
39401;DHT22;54391;50.000;7.360;2023-12-04T08:51:00;-3.70;18.30
39401;DHT22;54391;50.000;7.360;2023-12-04T08:53:27;-3.70;18.00
39401;DHT22;54391;50.000;7.360;2023-12-04T08:55:55;-3.80;18.40
39401;DHT22;54391;50.000;7.360;2023-12-04T08:58:24;-3.80;18.50
39401;DHT22;54391;50.000;7.360;2023-12-04T09:00:51;-3.80;18.90
39401;DHT22;54391;50.000;7.360;2023-12-04T09:03:19;-3.70;18.50
39401;DHT22;54391;50.000;7.360;2023-12-04T09:05:46;-3.60;18.80
39401;DHT22;54391;50.000;7.360;2023-12-04T09:08:15;-3.50;18.70
39401;DHT22;54391;50.000;7.360;2023-12-04T09:10:43;-3.50;18.50
39401;DHT22;54391;50.000;7.360;2023-12-04T09:13:11;-3.60;18.80
39401;DHT22;54391;50.000;7.360;2023-12-04T09:15:40;-3.70;20.20
39401;DHT22;54391;50.000;7.360;2023-12-04T09:18:07;-3.70;21.80
39401;DHT22;54391;50.000;7.360;2023-12-04T09:20:35;-3.80;22.70
39401;DHT22;54391;50.000;7.360;2023-12-04T09:23:03;-3.80;24.50
39401;DHT22;54391;50.000;7.360;2023-12-04T09:25:30;-3.80;25.60
39401;DHT22;54391;50.000;7.360;2023-12-04T09:27:57;-3.80;25.90
39401;DHT22;54391;50.000;7.360;2023-12-04T09:30:26;-3.80;25.80
39401;DHT22;54391;50.000;7.360;2023-12-04T09:32:54;-3.90;25.80
39401;DHT22;54391;50.000;7.360;2023-12-04T09:35:21;-3.90;26.90
39401;DHT22;54391;50.000;7.360;2023-12-04T09:37:49;-3.90;34.80
39401;DHT22;54391;50.000;7.360;2023-12-04T09:40:16;-3.80;31.90
39401;DHT22;54391;50.000;7.360;2023-12-04T09:42:43;-3.80;37.90
39401;DHT22;54391;50.000;7.360;2023-12-04T09:45:12;-3.80;39.80
39401;DHT22;54391;50.000;7.360;2023-12-04T09:47:40;-3.90;39.90
39401;DHT22;54391;50.000;7.360;2023-12-04T09:50:10;-3.70;32.30
39401;DHT22;54391;50.000;7.360;2023-12-04T09:52:37;-3.70;32.20
39401;DHT22;54391;50.000;7.360;2023-12-04T09:55:05;-3.60;32.20
39401;DHT22;54391;50.000;7.360;2023-12-04T09:57:33;-3.70;32.70
39401;DHT22;54391;50.000;7.360;2023-12-04T10:00:01;-3.60;33.40
39401;DHT22;54391;50.000;7.360;2023-12-04T10:02:37;-3.60;33.50
39401;DHT22;54391;50.000;7.360;2023-12-04T10:05:06;-3.60;33.30
39401;DHT22;54391;50.000;7.360;2023-12-04T10:07:34;-3.60;33.20
39401;DHT22;54391;50.000;7.360;2023-12-04T10:10:03;-3.50;33.40
39401;DHT22;54391;50.000;7.360;2023-12-04T10:12:32;-3.50;33.50
39401;DHT22;54391;50.000;7.360;2023-12-04T10:15:05;-3.40;33.20
39401;DHT22;54391;50.000;7.360;2023-12-04T10:17:36;-3.40;32.70
39401;DHT22;54391;50.000;7.360;2023-12-04T10:20:05;-3.30;31.80
39401;DHT22;54391;50.000;7.360;2023-12-04T10:22:40;-3.30;31.00
39401;DHT22;54391;50.000;7.360;2023-12-04T10:25:14;-3.40;30.00
39401;DHT22;54391;50.000;7.360;2023-12-04T10:27:42;-3.30;30.50
39401;DHT22;54391;50.000;7.360;2023-12-04T10:30:10;-3.30;30.10
39401;DHT22;54391;50.000;7.360;2023-12-04T10:32:49;-3.20;29.60
39401;DHT22;54391;50.000;7.360;2023-12-04T10:35:16;-3.30;28.70
39401;DHT22;54391;50.000;7.360;2023-12-04T10:37:45;-3.30;29.10
39401;DHT22;54391;50.000;7.360;2023-12-04T10:40:22;-3.30;29.30
39401;DHT22;54391;50.000;7.360;2023-12-04T10:42:50;-3.30;29.50
39401;DHT22;54391;50.000;7.360;2023-12-04T10:45:17;-3.20;30.00
39401;DHT22;54391;50.000;7.360;2023-12-04T10:47:50;-3.20;30.70
39401;DHT22;54391;50.000;7.360;2023-12-04T10:50:18;-3.20;30.70
39401;DHT22;54391;50.000;7.360;2023-12-04T10:52:47;-3.20;30.70
39401;DHT22;54391;50.000;7.360;2023-12-04T10:55:15;-3.20;30.90
39401;DHT22;54391;50.000;7.360;2023-12-04T10:57:43;-3.20;31.50
39401;DHT22;54391;50.000;7.360;2023-12-04T11:00:13;-3.20;31.90
39401;DHT22;54391;50.000;7.360;2023-12-04T11:02:43;-3.30;31.60
39401;DHT22;54391;50.000;7.360;2023-12-04T11:05:15;-3.30;32.30
39401;DHT22;54391;50.000;7.360;2023-12-04T11:07:48;-3.30;34.10
39401;DHT22;54391;50.000;7.360;2023-12-04T11:10:22;-3.30;34.60
39401;DHT22;54391;50.000;7.360;2023-12-04T11:12:56;-3.30;34.80
39401;DHT22;54391;50.000;7.360;2023-12-04T11:15:24;-3.30;36.00
39401;DHT22;54391;50.000;7.360;2023-12-04T11:17:57;-3.20;36.90
39401;DHT22;54391;50.000;7.360;2023-12-04T11:20:27;-3.20;37.20
39401;DHT22;54391;50.000;7.360;2023-12-04T11:22:58;-3.10;37.30
39401;DHT22;54391;50.000;7.360;2023-12-04T11:25:26;-3.10;37.00
39401;DHT22;54391;50.000;7.360;2023-12-04T11:27:55;-3.00;37.30
39401;DHT22;54391;50.000;7.360;2023-12-04T11:30:23;-3.00;36.70
39401;DHT22;54391;50.000;7.360;2023-12-04T11:32:50;-2.90;35.80
39401;DHT22;54391;50.000;7.360;2023-12-04T11:35:25;-2.90;35.60
39401;DHT22;54391;50.000;7.360;2023-12-04T11:37:53;-2.90;35.80
39401;DHT22;54391;50.000;7.360;2023-12-04T11:40:21;-3.00;35.80
39401;DHT22;54391;50.000;7.360;2023-12-04T11:42:49;-2.90;36.30
39401;DHT22;54391;50.000;7.360;2023-12-04T11:45:19;-3.00;35.80
39401;DHT22;54391;50.000;7.360;2023-12-04T11:47:54;-3.00;35.90
39401;DHT22;54391;50.000;7.360;2023-12-04T11:50:23;-3.00;45.30
39401;DHT22;54391;50.000;7.360;2023-12-04T11:52:51;-3.00;36.00
39401;DHT22;54391;50.000;7.360;2023-12-04T11:55:25;-2.60;39.30
39401;DHT22;54391;50.000;7.360;2023-12-04T11:57:54;-3.00;39.60
39401;DHT22;54391;50.000;7.360;2023-12-04T12:00:23;-3.00;38.40
39401;DHT22;54391;50.000;7.360;2023-12-04T12:03:02;-3.10;38.50
39401;DHT22;54391;50.000;7.360;2023-12-04T12:05:32;-1.60;40.10
39401;DHT22;54391;50.000;7.360;2023-12-04T12:08:04;-3.00;42.30
39401;DHT22;54391;50.000;7.360;2023-12-04T12:10:33;-3.00;41.80
39401;DHT22;54391;50.000;7.360;2023-12-04T12:13:01;-3.00;42.90
39401;DHT22;54391;50.000;7.360;2023-12-04T12:15:28;-3.00;44.00
39401;DHT22;54391;50.000;7.360;2023-12-04T12:17:56;-3.00;45.30
39401;DHT22;54391;50.000;7.360;2023-12-04T12:20:23;-3.00;45.40
39401;DHT22;54391;50.000;7.360;2023-12-04T12:22:50;-3.10;45.60
39401;DHT22;54391;50.000;7.360;2023-12-04T12:25:18;-3.00;48.30
39401;DHT22;54391;50.000;7.360;2023-12-04T12:27:47;-3.00;48.10
39401;DHT22;54391;50.000;7.360;2023-12-04T12:30:14;-3.00;47.40
39401;DHT22;54391;50.000;7.360;2023-12-04T12:32:42;-3.00;47.00
39401;DHT22;54391;50.000;7.360;2023-12-04T12:35:09;-3.00;45.50
39401;DHT22;54391;50.000;7.360;2023-12-04T12:37:38;-3.00;47.80
39401;DHT22;54391;50.000;7.360;2023-12-04T12:40:07;-3.00;47.90
39401;DHT22;54391;50.000;7.360;2023-12-04T12:42:36;-2.90;48.60
39401;DHT22;54391;50.000;7.360;2023-12-04T12:45:09;-2.90;47.80
39401;DHT22;54391;50.000;7.360;2023-12-04T12:47:39;-3.00;51.20
39401;DHT22;54391;50.000;7.360;2023-12-04T12:50:08;-2.50;55.30
39401;DHT22;54391;50.000;7.360;2023-12-04T12:52:39;-2.80;55.10
39401;DHT22;54391;50.000;7.360;2023-12-04T12:57:35;-2.80;94.50
39401;DHT22;54391;50.000;7.360;2023-12-04T14:13:17;-2.40;67.40
39401;DHT22;54391;50.000;7.360;2023-12-04T14:15:45;-2.40;67.50
39401;DHT22;54391;50.000;7.360;2023-12-04T14:18:12;-2.40;67.80
39401;DHT22;54391;50.000;7.360;2023-12-04T14:20:40;-2.30;68.50
39401;DHT22;54391;50.000;7.360;2023-12-04T14:23:07;-2.40;67.80
39401;DHT22;54391;50.000;7.360;2023-12-04T14:25:35;-2.40;68.50
39401;DHT22;54391;50.000;7.360;2023-12-04T14:28:03;-2.30;69.30
39401;DHT22;54391;50.000;7.360;2023-12-04T14:30:30;-2.40;69.20
39401;DHT22;54391;50.000;7.360;2023-12-04T14:32:57;-2.40;69.60
39401;DHT22;54391;50.000;7.360;2023-12-04T14:35:25;-2.40;69.90
39401;DHT22;54391;50.000;7.360;2023-12-04T14:37:52;-2.40;70.30
39401;DHT22;54391;50.000;7.360;2023-12-04T14:40:19;-2.40;93.40
39401;DHT22;54391;50.000;7.360;2023-12-04T14:55:17;-2.40;99.90
39401;DHT22;54391;50.000;7.360;2023-12-04T14:58:14;-2.40;99.90
39401;DHT22;54391;50.000;7.360;2023-12-04T15:07:07;-2.40;99.90
39401;DHT22;54391;50.000;7.360;2023-12-04T15:12:55;-2.40;99.90
39401;DHT22;54391;50.000;7.360;2023-12-04T15:18:30;-2.40;99.90
39401;DHT22;54391;50.000;7.360;2023-12-04T15:23:39;-2.30;99.90
39401;DHT22;54391;50.000;7.360;2023-12-04T15:26:08;-2.50;99.90
39401;DHT22;54391;50.000;7.360;2023-12-04T15:28:37;-2.20;99.90
39401;DHT22;54391;50.000;7.360;2023-12-04T15:31:05;-2.30;99.90
39401;DHT22;54391;50.000;7.360;2023-12-04T15:33:32;-2.30;99.90
39401;DHT22;54391;50.000;7.360;2023-12-04T15:35:58;-2.20;99.90
39401;DHT22;54391;50.000;7.360;2023-12-04T15:43:23;-2.30;99.90
39401;DHT22;54391;50.000;7.360;2023-12-04T15:45:49;-2.90;99.90
39401;DHT22;54391;50.000;7.360;2023-12-04T15:48:18;-2.10;99.90
39401;DHT22;54391;50.000;7.360;2023-12-04T15:50:46;-2.10;99.90
39401;DHT22;54391;50.000;7.360;2023-12-04T15:53:12;-2.20;99.90
39401;DHT22;54391;50.000;7.360;2023-12-04T15:55:39;-2.10;99.90
39401;DHT22;54391;50.000;7.360;2023-12-04T17:12:42;-1.90;99.90
39401;DHT22;54391;50.000;7.360;2023-12-04T17:27:34;-1.50;99.90
39401;DHT22;54391;50.000;7.360;2023-12-04T17:35:01;-1.40;99.90
39401;DHT22;54391;50.000;7.360;2023-12-04T17:37:30;-1.30;99.90
39401;DHT22;54391;50.000;7.360;2023-12-04T17:40:01;-1.30;99.90
39401;DHT22;54391;50.000;7.360;2023-12-04T17:42:32;-1.30;99.90
39401;DHT22;54391;50.000;7.360;2023-12-04T17:47:28;-1.00;99.90
39401;DHT22;54391;50.000;7.360;2023-12-04T17:49:56;-0.80;99.90
39401;DHT22;54391;50.000;7.360;2023-12-04T17:54:51;-1.00;97.20
39401;DHT22;54391;50.000;7.360;2023-12-04T17:57:18;-1.00;81.20
39401;DHT22;54391;50.000;7.360;2023-12-04T17:59:46;-1.10;78.00
39401;DHT22;54391;50.000;7.360;2023-12-04T18:02:13;-1.10;78.00
39401;DHT22;54391;50.000;7.360;2023-12-04T18:04:43;-1.10;78.00
39401;DHT22;54391;50.000;7.360;2023-12-04T18:07:10;-1.10;77.90
39401;DHT22;54391;50.000;7.360;2023-12-04T18:09:38;-1.00;77.80
39401;DHT22;54391;50.000;7.360;2023-12-04T18:12:06;-1.00;77.80
39401;DHT22;54391;50.000;7.360;2023-12-04T18:14:34;-1.10;78.10
39401;DHT22;54391;50.000;7.360;2023-12-04T18:17:01;-1.10;77.90
39401;DHT22;54391;50.000;7.360;2023-12-04T18:19:30;-1.10;78.10
39401;DHT22;54391;50.000;7.360;2023-12-04T18:22:01;-1.20;77.80
39401;DHT22;54391;50.000;7.360;2023-12-04T18:24:29;-1.10;77.90
39401;DHT22;54391;50.000;7.360;2023-12-04T18:26:56;-1.10;78.10
39401;DHT22;54391;50.000;7.360;2023-12-04T18:29:25;-1.00;77.90
39401;DHT22;54391;50.000;7.360;2023-12-04T18:31:53;-1.00;78.10
39401;DHT22;54391;50.000;7.360;2023-12-04T18:34:21;-1.00;77.90
39401;DHT22;54391;50.000;7.360;2023-12-04T18:36:52;-1.00;77.90
39401;DHT22;54391;50.000;7.360;2023-12-04T18:39:23;-1.10;78.10
39401;DHT22;54391;50.000;7.360;2023-12-04T18:41:51;-1.00;78.10
39401;DHT22;54391;50.000;7.360;2023-12-04T18:44:19;-1.10;78.30
39401;DHT22;54391;50.000;7.360;2023-12-04T18:46:49;-1.00;78.00
39401;DHT22;54391;50.000;7.360;2023-12-04T18:49:21;-1.00;78.10
39401;DHT22;54391;50.000;7.360;2023-12-04T18:51:49;-1.00;78.00
39401;DHT22;54391;50.000;7.360;2023-12-04T18:54:16;-1.00;78.10
39401;DHT22;54391;50.000;7.360;2023-12-04T18:56:45;-0.90;78.30
39401;DHT22;54391;50.000;7.360;2023-12-04T18:59:12;-0.90;78.30
39401;DHT22;54391;50.000;7.360;2023-12-04T19:01:40;-0.90;78.50